x

8637611 - York River East Rear Range Light, Va (ykrv2) Weather Station

1:18am - Mon 23rd Oct 2017 All times are EDT. -4 hours from GMT.

  • Wind
    10mph, 11mph gusts
  • Air Temp 69°f
  • Sea Pressure 1025.8mb
  • 8637611 - York River East Rear Range Light, Va
  • 8637611 - York River East Rear Range Light, Va

More Historic Weather Station data

Upgrade to MSW Pro to gain access to the past 30 days of data for over 8000 Wavebouys and Weather Stations around the globe.

Join

Comparision Forecast

View Surf forecast
   
Mon 10/23 1:18am 10 11 mph 1025.8mb 69f
1:12am 10 11 mph 1025.8mb 69f
1:06am 10 11 mph 1025.9mb 69f
1:00am 13 14 mph 1025.8mb 69f
12:54am 13 14 mph 1025.9mb 69f
12:48am 13 14 mph 1026mb 69f
12:42am 13 14 mph 1026mb 69f
12:36am 13 15 mph 1026mb 69f
12:30am 13 15 mph 1026.1mb 69f
12:24am 14 16 mph 1026.1mb 69f
12:18am 13 15 mph 1026.1mb 69f
12:12am 13 15 mph 1026.1mb 69f
12:06am 13 14 mph 1026.2mb 69f
12:00am 14 15 mph 1026.2mb 69f
Sun 10/22 11:54pm 13 15 mph 1026.3mb 69f
11:48pm 14 15 mph 1026.3mb 69f
11:42pm 13 15 mph 1026.4mb 69f
11:36pm 14 15 mph 1026.5mb 69f
11:30pm 11 14 mph 1026.6mb 69f
11:24pm 13 14 mph 1026.7mb 69f
11:18pm 11 14 mph 1026.8mb 70f
11:12pm 13 14 mph 1026.8mb 70f
11:06pm 13 14 mph 1026.9mb 70f
11:00pm 11 13 mph 1026.9mb 70f
10:54pm 9 11 mph 1027.1mb 70f
10:48pm 9 10 mph 1027.2mb 70f
10:42pm 9 11 mph 1027.2mb 70f
10:36pm 7 9 mph 1027.2mb 70f
10:30pm 9 10 mph 1027.2mb 70f
10:24pm 9 11 mph 1027.2mb 70f
10:18pm 10 13 mph 1027.3mb 70f
10:12pm 10 11 mph 1027.3mb 70f
10:00pm 10 13 mph 1027.4mb 70f
9:54pm 11 13 mph 1027.4mb 70f
9:48pm  -  mph 1027.4mb 70f
9:42pm  -  mph 1027.3mb 69f
9:36pm  -  mph 1027.4mb 70f
9:30pm 14 15 mph 1027.3mb 70f
9:24pm 13 14 mph 1027.3mb 70f
9:18pm 14 16 mph 1027.3mb 70f
9:12pm 14 15 mph 1027.3mb 69f
9:00pm 13 14 mph 1027.1mb 69f
8:54pm 14 14 mph 1027.2mb 69f
8:48pm 13 15 mph 1027.2mb 69f
8:42pm 14 16 mph 1027.2mb 69f
8:36pm 14 16 mph 1027.1mb 69f
8:30pm 14 16 mph 1027.1mb 69f
8:24pm 14 15 mph 1027.2mb 69f
8:18pm 14 17 mph 1027.2mb 69f
8:12pm 15 16 mph 1027.1mb 69f
8:06pm 14 16 mph 1027.1mb 69f
8:00pm 15 16 mph 1027.1mb 69f
7:54pm 15 17 mph 1027.1mb 69f
7:48pm 16 17 mph 1027.1mb -
7:42pm 16 17 mph 1027.1mb -
7:36pm 16 18 mph 1027mb -
7:30pm 16 17 mph 1026.9mb 69f
7:24pm 16 18 mph 1026.9mb 69f
7:18pm 16 17 mph 1026.9mb 69f
7:12pm 16 18 mph 1026.9mb 69f
7:06pm 16 17 mph 1026.8mb 69f
7:00pm 16 17 mph 1026.7mb 69f
6:54pm 15 17 mph 1026.8mb 69f
6:48pm 15 17 mph 1026.7mb -
6:42pm 14 15 mph 1026.9mb -
6:36pm 14 16 mph 1026.9mb -
6:30pm 14 16 mph 1026.9mb 70f
6:24pm 13 14 mph 1027mb 70f
6:18pm 10 11 mph 1027mb 70f
6:06pm 10 13 mph 1027mb 70f
5:54pm 10 13 mph 1027.1mb 70f
5:48pm 13 15 mph 1027.2mb 70f
5:42pm 13 14 mph 1027.1mb 70f
5:36pm 11 14 mph 1027mb 70f
5:30pm 11 13 mph 1027mb 70f
5:18pm 10 11 mph 1027mb 70f
5:12pm 11 14 mph 1027mb 70f
5:06pm 10 13 mph 1026.9mb 70f
5:00pm 10 11 mph 1027mb 70f
4:54pm 9 10 mph 1026.9mb 70f
4:48pm 9 10 mph 1026.9mb 70f
4:42pm 8 9 mph 1027.1mb 70f
4:36pm 9 10 mph 1027.1mb 70f
4:30pm 9 10 mph 1027.2mb 70f
4:24pm 10 11 mph 1027.2mb 70f
4:18pm 11 11 mph 1027mb 70f
4:12pm 11 11 mph 1027mb 70f
4:06pm 11 13 mph 1027.1mb 70f
4:00pm 10 11 mph 1027.1mb 70f
3:54pm 10 10 mph 1027.2mb 70f
3:48pm 10 11 mph 1027.2mb 70f
3:42pm 9 10 mph 1027.2mb 70f
3:36pm 9 10 mph 1027.3mb 70f
3:30pm 9 10 mph 1027.3mb 70f
3:24pm 9 10 mph 1027.4mb 70f
3:18pm 9 10 mph 1027.5mb 70f
3:12pm 9 9 mph 1027.6mb 70f
3:06pm 8 9 mph 1027.6mb 70f
3:00pm 9 10 mph 1027.6mb 70f
2:54pm 8 9 mph 1027.7mb 70f
2:42pm 9 9 mph 1027.8mb 70f
2:30pm 9 10 mph 1027.9mb 70f
2:24pm 8 9 mph 1027.9mb 70f
2:18pm 8 9 mph 1028mb 70f
2:12pm 8 9 mph 1028.1mb 70f
2:06pm 7 8 mph 1028.2mb 70f
2:00pm 5 7 mph 1028.2mb 69f
1:54pm 1 2 mph 1028.4mb 69f
1:48pm 2 2 mph 1028.4mb 69f
1:42pm 1 3 mph 1028.5mb 69f
1:36pm 1 2 mph 1028.5mb 69f
1:30pm 2 2 mph 1028.5mb 69f
1:24pm 2 2 mph 1028.6mb 69f
1:18pm  -  1 mph 1028.6mb 69f
1:12pm  -  1 mph 1028.6mb 69f
1:06pm  -  2 mph 1028.6mb 69f
1:00pm  -  2 mph 1028.7mb 69f
12:54pm  -  2 mph 1028.8mb 69f
12:48pm 6 7 mph 1028.8mb 69f
12:42pm 6 7 mph 1028.9mb 69f
12:36pm 5 6 mph 1029mb 69f
12:30pm 6 7 mph 1029.1mb 69f
12:24pm 5 6 mph 1029.2mb 69f
12:18pm 6 6 mph 1029.2mb 69f
12:12pm 6 6 mph 1029.2mb 69f
12:06pm 6 7 mph 1029.2mb 69f
12:00pm 6 6 mph 1029.2mb 68f
11:54am 5 6 mph 1029.3mb 69f
11:48am 5 6 mph 1029.4mb 69f
11:42am 5 6 mph 1029.4mb 69f
11:36am 5 6 mph 1029.5mb 69f
11:30am 6 6 mph 1029.4mb 70f
11:24am 5 6 mph 1029.5mb 70f
11:18am 5 5 mph 1029.5mb 70f
11:12am 5 6 mph 1029.6mb 70f
11:06am 5 6 mph 1029.6mb 70f
11:00am 5 6 mph 1029.7mb 70f
10:54am 6 6 mph 1029.7mb 70f
10:48am 6 7 mph 1029.7mb 69f
10:42am 7 8 mph 1029.6mb 69f
10:36am 7 8 mph 1029.6mb 69f
10:30am 7 8 mph 1029.6mb 69f
10:24am 6 8 mph 1029.6mb 68f
10:18am 3 5 mph 1029.7mb 67f
10:12am 3 5 mph 1029.6mb 67f
10:06am 3 5 mph 1029.6mb 67f
10:00am 5 6 mph 1029.7mb 67f
9:54am 5 6 mph 1029.7mb 67f
9:48am 5 6 mph 1029.7mb 67f
9:42am 5 5 mph 1029.8mb 67f
9:36am 5 6 mph 1029.8mb 67f
9:30am 5 6 mph 1029.8mb 66f
9:24am 5 6 mph 1029.8mb 66f
9:18am 5 6 mph 1029.7mb 66f
9:12am 5 6 mph 1029.8mb 66f
9:06am 5 6 mph 1029.8mb 66f
9:00am 5 6 mph 1029.8mb 66f
8:48am 5 5 mph 1029.8mb 65f
8:42am 5 5 mph 1029.8mb 65f
8:36am 3 5 mph 1029.7mb 65f
8:30am 3 3 mph 1029.7mb 65f
8:24am 3 5 mph 1029.6mb 65f
8:18am 3 3 mph 1029.4mb 65f
8:12am 5 5 mph 1029.3mb 65f
8:06am 5 6 mph 1029.2mb 64f
8:00am 6 6 mph 1029.3mb 64f
7:54am 5 6 mph 1029.2mb 64f
7:48am 6 6 mph 1029.2mb 64f
7:42am 6 6 mph 1029.1mb 64f
7:36am 5 6 mph 1029.1mb 64f
7:30am 5 6 mph 1029mb 64f
7:24am 5 6 mph 1029mb 65f
7:18am 5 6 mph 1029mb 65f
7:12am 5 6 mph 1028.9mb 65f
7:06am 5 5 mph 1028.9mb 65f
7:00am 5 5 mph 1028.9mb 65f
6:54am 5 6 mph 1028.8mb 64f
6:48am 5 6 mph 1028.8mb 64f
6:42am 5 6 mph 1028.8mb 64f
6:36am 3 3 mph 1028.7mb 65f
6:30am 2 3 mph 1028.7mb 65f
6:24am 1 2 mph 1028.6mb 65f
6:18am 1 2 mph 1028.6mb 65f
6:12am 2 2 mph 1028.6mb 65f
6:06am 1 2 mph 1028.5mb 65f
6:00am 2 3 mph 1028.5mb 65f
5:54am 3 3 mph 1028.5mb 65f
5:48am 3 5 mph 1028.5mb 65f
5:42am 3 5 mph 1028.4mb 65f
5:36am 3 5 mph 1028.4mb 65f
5:30am 3 3 mph 1028.3mb 65f
5:24am 3 3 mph 1028.2mb 65f
5:18am 3 5 mph 1028.2mb 65f
5:12am 2 3 mph 1028.2mb 66f
5:06am 3 3 mph 1028mb 66f
5:00am 2 3 mph 1027.9mb 66f
4:54am 2 3 mph 1027.9mb 66f
4:48am 3 3 mph 1027.8mb 66f
4:42am 3 3 mph 1027.8mb 66f
4:36am 3 3 mph 1027.7mb 66f
4:30am 3 5 mph 1027.7mb 66f
4:24am 5 5 mph 1027.6mb 66f
4:18am 5 5 mph 1027.7mb 66f
4:12am 5 6 mph 1027.6mb 66f
4:06am 5 5 mph 1027.6mb 66f
4:00am 5 6 mph 1027.5mb 66f
3:54am 6 6 mph 1027.5mb 66f
3:48am 5 6 mph 1027.5mb 66f
3:42am 5 6 mph 1027.6mb 66f
3:36am 5 6 mph 1027.6mb 66f
3:30am 5 5 mph 1027.6mb 66f
3:24am 5 6 mph 1027.6mb 66f
3:18am 5 6 mph 1027.6mb 66f
3:12am 6 6 mph 1027.5mb 66f
3:06am 6 7 mph 1027.6mb 66f
3:00am 6 6 mph 1027.7mb 66f
2:54am 6 6 mph 1027.7mb 66f
2:48am 6 6 mph 1027.7mb -
2:42am 6 7 mph 1027.7mb -
2:36am 6 7 mph 1027.7mb -
2:30am 6 7 mph 1027.8mb 66f
2:24am 6 7 mph 1027.8mb 67f
2:18am 6 7 mph 1027.8mb 67f
2:12am 6 7 mph 1027.8mb 67f
2:06am 6 6 mph 1027.8mb 67f
2:00am 6 6 mph 1027.9mb 67f
1:54am 6 6 mph 1027.8mb 67f
1:48am 6 6 mph 1027.9mb 67f
1:42am 6 6 mph 1027.9mb 67f
1:36am 5 6 mph 1027.9mb 67f
1:30am 6 6 mph 1027.9mb 67f
1:24am 6 6 mph 1028mb 67f
1:18am 6 6 mph 1027.9mb 67f
1:12am 6 6 mph 1027.9mb 66f
1:06am 6 6 mph 1028mb 66f
1:00am 6 7 mph 1028mb 66f
12:54am 6 7 mph 1028mb 67f
12:48am 6 6 mph 1028mb 67f
12:42am 7 7 mph 1028mb 67f
12:36am 6 7 mph 1028mb 67f
12:30am 7 8 mph 1028.1mb 67f
12:24am 9 10 mph 1028.1mb 68f
12:18am 9 10 mph 1028.1mb 68f
12:12am 10 11 mph 1028.2mb 68f
12:06am 10 11 mph 1028.2mb 68f
12:00am 10 11 mph 1028.3mb 68f
Sat 10/21 11:54pm 9 10 mph 1028.3mb 68f
11:48pm 10 11 mph 1028.3mb 69f
11:42pm 10 10 mph 1028.4mb 69f
11:36pm 9 10 mph 1028.4mb 68f
11:30pm 9 10 mph 1028.4mb 68f
11:24pm 10 11 mph 1028.5mb 68f
11:18pm 9 10 mph 1028.5mb 68f
11:12pm 6 8 mph 1028.6mb 68f
11:06pm 7 8 mph 1028.5mb 68f
11:00pm 7 8 mph 1028.5mb 68f
10:54pm 8 8 mph 1028.6mb 68f
10:48pm 6 8 mph 1028.6mb 68f
10:42pm 6 8 mph 1028.6mb 68f
10:36pm 7 8 mph 1028.6mb 68f
10:30pm 6 8 mph 1028.6mb 68f
10:24pm 6 8 mph 1028.7mb 69f
10:18pm 6 7 mph 1028.6mb 68f
10:12pm 7 8 mph 1028.6mb 69f
10:06pm 8 9 mph 1028.6mb 68f
10:00pm 7 8 mph 1028.5mb 69f
9:54pm 6 8 mph 1028.5mb 69f
9:30pm 7 9 mph 1028.5mb 68f
9:24pm 7 8 mph 1028.6mb 69f
9:18pm 7 8 mph 1028.6mb 69f
9:12pm 7 8 mph 1028.6mb 69f
9:06pm 8 9 mph 1028.5mb 69f
9:00pm 8 9 mph 1028.5mb 69f
8:54pm 7 8 mph 1028.5mb 69f
8:48pm 8 9 mph 1028.5mb 69f
8:42pm 7 8 mph 1028.5mb 69f
8:36pm 8 9 mph 1028.4mb 69f
8:30pm 7 9 mph 1028.4mb 69f
8:24pm 7 8 mph 1028.4mb 69f
8:18pm 8 9 mph 1028.3mb 69f
8:12pm 8 9 mph 1028.4mb 69f
8:06pm 8 10 mph 1028.4mb 69f
8:00pm 9 10 mph 1028.4mb 69f
7:54pm 9 11 mph 1028.4mb 69f
7:48pm  -  mph 1028.4mb 69f
7:42pm  -  mph 1028.4mb 69f
7:36pm  -  mph 1028.4mb 69f
7:30pm 8 9 mph 1028.4mb 69f
7:24pm 7 9 mph 1028.4mb 69f
7:18pm 6 8 mph 1028.3mb 69f
7:12pm 6 8 mph 1028.3mb 69f
7:06pm 6 7 mph 1028.2mb 69f
7:00pm 7 8 mph 1028.1mb 69f
6:54pm 8 10 mph 1027.9mb 69f
6:48pm  -  mph 1028mb 69f
6:42pm  -  mph 1027.9mb 69f
6:36pm  -  mph 1027.8mb 69f
6:30pm 6 9 mph 1027.7mb 69f
6:24pm 6 7 mph 1027.7mb 69f
6:18pm 3 6 mph 1027.6mb 69f
6:12pm 5 6 mph 1027.7mb 69f
6:06pm 3 5 mph 1027.7mb 69f
5:54pm 5 8 mph 1027.8mb 69f
5:48pm 7 8 mph 1027.7mb 69f
5:42pm 7 8 mph 1027.7mb 69f
5:36pm 7 8 mph 1027.7mb 69f
5:30pm 8 8 mph 1027.7mb 70f
5:24pm 7 8 mph 1027.6mb 70f
5:18pm 8 8 mph 1027.6mb 70f
5:12pm 8 8 mph 1027.6mb 70f
5:06pm 8 8 mph 1027.5mb 70f
5:00pm 8 9 mph 1027.5mb 70f
4:54pm 7 8 mph 1027.4mb 70f
4:48pm 7 8 mph 1027.4mb 70f
4:42pm 7 8 mph 1027.4mb 70f
4:36pm 8 8 mph 1027.3mb 70f
4:30pm 7 8 mph 1027.3mb 70f
4:24pm 7 7 mph 1027.3mb 70f
4:18pm 6 6 mph 1027.3mb 71f
4:12pm 3 5 mph 1027.3mb 72f
4:06pm 3 5 mph 1027.3mb 73f
4:00pm 3 3 mph 1027.3mb 72f
3:54pm 3 5 mph 1027.2mb 72f
3:48pm 3 5 mph 1027.2mb 72f
3:42pm 5 5 mph 1027.2mb 72f
3:36pm 3 5 mph 1027.2mb 72f
3:30pm 5 5 mph 1027.2mb 72f
3:24pm 5 6 mph 1027.2mb 71f
3:18pm 6 6 mph 1027.1mb 72f
3:12pm 6 6 mph 1027.1mb 72f
3:06pm 6 6 mph 1027.1mb 71f
3:00pm 6 6 mph 1027.1mb 71f
2:54pm 6 7 mph 1027.1mb 71f
2:42pm 6 7 mph 1027.1mb 71f
2:36pm 6 7 mph 1027.2mb 71f
2:30pm 6 6 mph 1027.3mb 71f
2:24pm 6 6 mph 1027.3mb 71f
2:18pm 5 6 mph 1027.2mb 71f
2:12pm 6 6 mph 1027.2mb 71f
2:06pm 6 6 mph 1027.2mb 71f
2:00pm 6 6 mph 1027.3mb 70f
1:54pm 5 6 mph 1027.3mb 70f
1:48pm 6 7 mph 1027.4mb 70f
1:42pm 6 6 mph 1027.4mb 70f
1:36pm 6 7 mph 1027.4mb 70f
1:30pm 6 7 mph 1027.5mb 70f
1:24pm 6 6 mph 1027.5mb 70f
1:18pm 6 6 mph 1027.6mb 71f
1:12pm 6 6 mph 1027.7mb 71f
1:06pm 6 6 mph 1027.8mb 70f
1:00pm 6 6 mph 1027.9mb 71f
12:54pm 6 7 mph 1028mb 70f
12:48pm 5 6 mph 1028mb 71f
12:42pm 5 6 mph 1028.1mb 70f
12:36pm 5 6 mph 1028.1mb 69f
12:30pm 6 6 mph 1028.1mb 69f
12:24pm 5 6 mph 1028.2mb 70f
12:18pm 6 6 mph 1028.2mb 70f
12:12pm 5 5 mph 1028.2mb 70f
12:06pm 5 6 mph 1028.3mb 70f
12:00pm 5 6 mph 1028.3mb 70f
11:54am 3 5 mph 1028.4mb 71f
11:48am 3 3 mph 1028.3mb 70f
11:42am 3 3 mph 1028.4mb 69f
11:36am 2 3 mph 1028.5mb 70f
11:30am 1 2 mph 1028.5mb 69f
11:24am 1 2 mph 1028.5mb 69f
11:18am  -  2 mph 1028.5mb 68f
11:12am 2 3 mph 1028.4mb 67f
11:06am 2 2 mph 1028.4mb 67f
11:00am 2 3 mph 1028.4mb 67f
10:48am 2 2 mph 1028.4mb 67f
10:42am 1 2 mph 1028.4mb 66f
10:36am 2 2 mph 1028.4mb 66f
10:30am 1 2 mph 1028.4mb 65f
10:24am 2 3 mph 1028.3mb 65f
10:18am 2 3 mph 1028.2mb 65f
10:12am 2 3 mph 1028.2mb 65f
10:06am 3 3 mph 1028.2mb 65f
10:00am 3 5 mph 1028.2mb 64f
9:54am 3 5 mph 1028.2mb 64f
9:48am 3 5 mph 1028.2mb 64f
9:42am 3 5 mph 1028.2mb 64f
9:36am 3 3 mph 1028.2mb 64f
9:30am 3 3 mph 1028.2mb 64f
9:24am 2 3 mph 1028.1mb 64f
9:18am 2 3 mph 1028mb 64f
9:12am 3 3 mph 1028mb 64f
9:06am 3 5 mph 1027.9mb 64f
9:00am 2 3 mph 1027.9mb 64f
8:54am 3 3 mph 1027.7mb 63f
8:48am 2 3 mph 1027.7mb 64f
8:42am 3 3 mph 1027.7mb 64f
8:36am 3 3 mph 1027.6mb 64f
8:30am 2 3 mph 1027.5mb 63f
8:24am 3 5 mph 1027.4mb 63f
8:18am 3 5 mph 1027.4mb 63f
8:12am 5 5 mph 1027.3mb 63f
8:06am 5 5 mph 1027.2mb 63f
8:00am 5 6 mph 1027.2mb 63f
7:54am 5 6 mph 1027.1mb 63f
7:48am 5 6 mph 1026.9mb 63f
7:42am 5 5 mph 1026.8mb 63f
7:36am 5 5 mph 1026.6mb 63f
7:30am 5 6 mph 1026.6mb 63f
7:24am 5 5 mph 1026.4mb 63f
7:18am 5 5 mph 1026.3mb 63f
7:12am 5 5 mph 1026.2mb 63f
7:06am 5 5 mph 1026.1mb 63f
7:00am 5 6 mph 1026mb 63f
6:54am 5 6 mph 1026mb 63f
6:48am 5 6 mph 1025.9mb 63f
6:42am 3 5 mph 1026mb 63f
6:36am 3 5 mph 1025.9mb 63f
6:30am 3 5 mph 1026mb 64f
6:24am 3 5 mph 1025.9mb 64f
6:18am 3 5 mph 1025.8mb 64f
6:12am 3 5 mph 1025.8mb 64f
6:06am 5 6 mph 1025.8mb 64f
6:00am 5 6 mph 1025.8mb 64f
5:54am 3 5 mph 1025.8mb 64f
5:48am 3 5 mph 1025.7mb 65f
5:42am 3 5 mph 1025.5mb 65f
5:36am 3 5 mph 1025.6mb 65f
5:30am 5 6 mph 1025.5mb 65f
5:24am 5 6 mph 1025.3mb 65f
5:18am 3 5 mph 1025.2mb 65f
5:12am 5 6 mph 1025.1mb 65f
5:06am 5 5 mph 1025.1mb 64f
5:00am 5 6 mph 1025.1mb 64f
4:54am 5 6 mph 1025.1mb 64f
4:48am 2 3 mph 1025.2mb 64f
4:42am 2 3 mph 1025.2mb 64f
4:36am 2 3 mph 1025.2mb 65f
4:30am 2 3 mph 1025.3mb 65f
4:24am 2 2 mph 1025.2mb 65f
4:18am 2 2 mph 1025.2mb 65f
4:12am 2 2 mph 1025.3mb 65f
4:06am 2 2 mph 1025.2mb 65f
4:00am 2 2 mph 1025.2mb 65f
3:54am 1 2 mph 1025.1mb 65f
3:48am  -  1 mph 1025.1mb 65f
3:42am 2 2 mph 1025.1mb 65f
3:36am 2 2 mph 1025.1mb 65f
3:30am 2 3 mph 1025.1mb 65f
3:24am 2 2 mph 1025.1mb 65f
3:18am 1 2 mph 1025.1mb 65f
3:12am  -  1 mph 1025.1mb 65f
3:06am  -  1 mph 1025.1mb 65f
3:00am 1 1 mph 1025.1mb 65f
2:54am 1 2 mph 1025.2mb 65f
2:48am 2 2 mph 1025.3mb 65f
2:42am 2 2 mph 1025.3mb 65f
2:36am 2 2 mph 1025.4mb 65f
2:30am 2 2 mph 1025.4mb 65f
2:24am 2 2 mph 1025.4mb 66f
2:18am 2 2 mph 1025.4mb 66f
2:12am 2 3 mph 1025.3mb 66f
2:06am 2 3 mph 1025.3mb 66f
2:00am 2 2 mph 1025.3mb 66f
1:54am 2 2 mph 1025.3mb 66f
1:48am 2 2 mph 1025.3mb 66f
1:42am 1 2 mph 1025.2mb 66f
1:36am 2 3 mph 1025.2mb 66f
1:30am 2 2 mph 1025.1mb 65f
1:24am 2 2 mph 1025.1mb 65f
1:18am 2 2 mph 1025.1mb 66f
1:12am 2 2 mph 1025.1mb 66f
1:06am 3 5 mph 1025.1mb 66f
1:00am 3 3 mph 1025.1mb 66f
12:54am 2 2 mph 1025.1mb 66f
12:48am 2 2 mph 1025.1mb 66f
12:42am 1 2 mph 1025.1mb 66f
12:36am 1 2 mph 1025.1mb 66f
12:30am  -  1 mph 1024.9mb 66f
12:24am  -  1 mph 1024.9mb 66f
12:18am 1 1 mph 1024.9mb 67f
12:12am 1 1 mph 1024.9mb 67f
12:06am 1 2 mph 1024.9mb 67f
12:00am 1 2 mph 1024.9mb 67f
Fri 10/20 11:54pm 1 2 mph 1024.9mb 67f
11:48pm  -  1 mph 1024.9mb 67f
11:42pm  -  1 mph 1024.8mb 67f
11:36pm  -  0 mph 1024.8mb 67f
11:30pm  -  0 mph 1024.8mb 67f
11:24pm  -  0 mph 1024.7mb 67f
11:18pm  -  0 mph 1024.7mb 68f
11:12pm  -  0 mph 1024.7mb 68f
11:06pm  -  1 mph 1024.7mb 67f
11:00pm 1 1 mph 1024.7mb 68f
10:54pm  -  1 mph 1024.6mb 68f
10:48pm  -  mph 1024.6mb 68f
10:42pm  -  mph 1024.6mb 68f
10:36pm  -  mph 1024.5mb 68f
10:30pm  -  1 mph 1024.5mb 68f
10:24pm  -  0 mph 1024.4mb 68f
10:12pm  -  1 mph 1024.2mb 68f
10:06pm  -  0 mph 1024.3mb 68f
10:00pm  -  0 mph 1024.2mb 68f
9:54pm  -  0 mph 1024.2mb 68f
9:48pm  -  mph 1024.1mb 68f
9:36pm  -  mph 1024mb 68f
9:30pm  -  1 mph 1024mb 68f
9:24pm 1 1 mph 1023.9mb 68f
9:18pm 1 1 mph 1023.8mb 68f
9:12pm 1 2 mph 1023.8mb 68f
9:06pm 2 2 mph 1023.8mb 68f
9:00pm 2 2 mph 1023.8mb 68f
8:54pm 3 3 mph 1023.7mb 68f
8:48pm 3 3 mph 1023.7mb 68f
8:42pm 3 5 mph 1023.6mb 68f
8:36pm 3 3 mph 1023.6mb 68f
8:30pm 2 3 mph 1023.7mb 68f
8:24pm 3 3 mph 1023.6mb 68f
8:18pm 3 3 mph 1023.6mb 68f
8:12pm 5 5 mph 1023.5mb 68f
8:06pm 5 6 mph 1023.5mb 69f
8:00pm 6 7 mph 1023.4mb 69f
7:54pm 6 7 mph 1023.4mb 69f
7:48pm 6 7 mph 1023.4mb 69f
7:42pm 6 7 mph 1023.4mb 69f
7:36pm 7 8 mph 1023.3mb 69f
7:30pm 7 8 mph 1023.2mb 69f
7:24pm 7 8 mph 1023.2mb 69f
7:18pm 7 8 mph 1023.2mb 68f
7:12pm 8 8 mph 1023.1mb 69f
7:06pm 7 8 mph 1023.1mb 68f
7:00pm 7 8 mph 1023.1mb 69f
6:54pm 7 8 mph 1023mb 68f
6:48pm  -  mph 1023mb -
6:42pm  -  mph 1023mb -
6:36pm  -  mph 1022.9mb -
6:30pm 7 7 mph 1022.9mb 68f
6:24pm 8 8 mph 1022.8mb 69f
6:18pm 8 8 mph 1022.8mb 69f
6:12pm 8 9 mph 1022.7mb 69f
6:06pm 8 9 mph 1022.7mb 69f
6:00pm 8 9 mph 1022.7mb 69f
5:54pm 7 8 mph 1022.6mb 69f
5:48pm 8 9 mph 1022.5mb 69f
5:42pm 7 9 mph 1022.6mb 69f
5:36pm 9 9 mph 1022.5mb 69f
5:30pm 8 8 mph 1022.6mb 69f
5:24pm 9 10 mph 1022.5mb 69f
5:18pm 9 10 mph 1022.5mb 69f
5:12pm 9 10 mph 1022.5mb 69f
5:06pm 9 9 mph 1022.5mb 69f
5:00pm 8 9 mph 1022.5mb 69f
4:54pm 9 9 mph 1022.5mb 69f
4:48pm 7 8 mph 1022.4mb 70f
4:42pm 6 6 mph 1022.5mb 70f
4:36pm 6 6 mph 1022.4mb 70f
4:30pm 6 6 mph 1022.4mb 70f
4:24pm 6 6 mph 1022.4mb 70f
4:18pm 6 6 mph 1022.5mb 70f
4:12pm 6 7 mph 1022.5mb 69f
4:06pm 6 7 mph 1022.6mb 69f
4:00pm 7 8 mph 1022.6mb 70f
3:54pm 7 8 mph 1022.6mb 70f
3:48pm 7 8 mph 1022.7mb 70f
3:42pm 8 8 mph 1022.6mb 71f
3:36pm 7 8 mph 1022.6mb 71f
3:30pm 7 8 mph 1022.7mb 71f
3:24pm 6 7 mph 1022.7mb 71f
3:18pm 7 8 mph 1022.7mb 70f
3:12pm 7 8 mph 1022.8mb 70f
3:06pm 8 9 mph 1022.8mb 69f
3:00pm 8 9 mph 1022.8mb 69f
2:54pm 9 10 mph 1022.9mb 69f
2:48pm 8 9 mph 1022.9mb 69f
2:42pm 8 9 mph 1023mb 69f
2:36pm 7 8 mph 1023mb 69f
2:30pm 8 9 mph 1023.1mb 69f
2:24pm 8 8 mph 1023.2mb 69f
2:18pm 7 8 mph 1023.2mb 69f
2:06pm 6 8 mph 1023.3mb 70f
1:54pm 8 8 mph 1023.4mb 70f
1:48pm 8 10 mph 1023.5mb 70f
1:42pm 6 8 mph 1023.5mb 70f
1:36pm 5 5 mph 1023.5mb 71f
1:30pm 5 6 mph 1023.5mb 70f
1:24pm 6 7 mph 1023.5mb 70f
1:18pm 6 7 mph 1023.6mb 70f
1:12pm 7 8 mph 1023.7mb 70f
1:06pm 7 7 mph 1023.9mb 70f
1:00pm 7 8 mph 1024mb 70f
12:54pm 8 8 mph 1024mb 70f
12:48pm 9 9 mph 1024.1mb 70f
12:00pm 9 10 mph 1024.5mb 69f
11:48am 8 9 mph 1024.7mb 67f
10:54am 8 9 mph 1024.7mb 65f
10:48am 7 8 mph 1024.6mb 65f
10:18am 7 8 mph 1024.7mb 64f
10:12am 7 8 mph 1024.7mb 64f
10:06am 7 8 mph 1024.7mb 64f
10:00am 8 8 mph 1024.7mb 63f
9:54am 8 8 mph 1024.7mb 63f
9:48am 7 9 mph 1024.6mb 63f
9:42am 7 8 mph 1024.6mb 63f
9:36am 7 8 mph 1024.6mb 62f
9:30am 7 8 mph 1024.6mb 61f
9:24am 7 8 mph 1024.6mb 61f
9:18am 7 8 mph 1024.6mb 61f
9:12am 7 8 mph 1024.5mb 61f
9:06am 8 9 mph 1024.4mb 61f
9:00am 8 9 mph 1024.4mb 61f
8:54am 8 9 mph 1024.3mb 61f
8:48am 7 8 mph 1024.3mb 60f
8:42am 7 8 mph 1024.2mb 60f
8:36am 7 7 mph 1024.1mb 60f
8:30am 6 7 mph 1024mb 60f
8:24am 7 8 mph 1024mb 60f
8:18am 7 8 mph 1023.9mb 59f
8:12am 7 8 mph 1024mb 59f
8:06am 7 7 mph 1023.9mb 59f
8:00am 6 8 mph 1023.8mb 59f
7:54am 6 7 mph 1023.8mb 59f
7:48am 6 8 mph 1023.7mb 59f
7:42am 6 7 mph 1023.7mb 59f
7:36am 6 7 mph 1023.5mb 59f
7:30am 6 7 mph 1023.5mb 59f
7:24am 7 7 mph 1023.4mb 59f
7:18am 7 8 mph 1023.4mb 58f
7:12am 7 8 mph 1023.3mb 58f
7:06am 6 7 mph 1023.2mb 59f
7:00am 7 9 mph 1023.2mb 59f
6:54am 7 8 mph 1023.2mb 59f
6:48am 8 9 mph 1023.2mb 59f
6:42am 7 8 mph 1023.1mb 59f
6:36am 7 9 mph 1023.1mb 59f
6:30am 8 9 mph 1023.1mb 60f
6:24am 8 9 mph 1023mb 60f
6:18am 8 10 mph 1023mb 61f
6:12am 7 8 mph 1023mb 61f
6:06am 7 8 mph 1022.9mb 61f
6:00am 8 9 mph 1022.8mb 62f
5:54am 8 10 mph 1022.7mb 62f
5:48am 8 9 mph 1022.6mb 62f
5:42am 7 9 mph 1022.5mb 63f
5:36am 8 9 mph 1022.5mb 63f
5:30am 8 9 mph 1022.4mb 63f
5:24am 7 9 mph 1022.2mb 63f
5:18am 7 8 mph 1022.3mb 64f
5:12am 8 9 mph 1022.3mb 64f
5:06am 6 7 mph 1022.3mb 63f
5:00am 6 6 mph 1022.2mb 63f
4:54am 6 7 mph 1022.2mb 63f
4:48am 6 7 mph 1022.1mb 63f
4:42am 6 7 mph 1022.1mb 63f
4:36am 7 8 mph 1022.1mb 63f
4:30am 7 9 mph 1022mb 63f
4:24am 7 8 mph 1022mb 63f
4:18am 8 9 mph 1021.9mb 63f
4:12am 8 10 mph 1021.9mb 63f
4:06am 9 11 mph 1021.9mb 63f
4:00am 10 11 mph 1021.8mb 64f
3:54am 9 11 mph 1021.8mb 64f
3:48am 8 10 mph 1021.8mb 63f
3:42am 7 8 mph 1021.8mb 64f
3:36am 8 10 mph 1021.8mb 63f
3:30am 9 10 mph 1021.8mb 63f
3:24am 8 9 mph 1021.9mb 63f
3:18am 8 9 mph 1021.9mb 64f
3:12am 8 9 mph 1021.9mb 64f
3:06am 8 9 mph 1022mb 64f
3:00am 8 9 mph 1022mb 64f
2:54am 9 10 mph 1022.1mb 64f
2:48am 9 10 mph 1022mb -
2:42am 8 9 mph 1022.1mb -
2:36am 9 9 mph 1022.1mb -
2:30am 9 10 mph 1022.1mb 64f
2:24am 9 10 mph 1022.1mb 64f
2:18am 8 9 mph 1022.2mb 64f
2:12am 10 11 mph 1022.2mb 64f
2:06am 9 10 mph 1022.2mb 64f
2:00am 9 10 mph 1022.3mb 64f
1:54am 9 10 mph 1022.3mb 64f
1:48am 8 9 mph 1022.3mb 64f
1:42am 9 10 mph 1022.3mb 64f
1:36am 9 10 mph 1022.4mb 64f
1:30am 9 10 mph 1022.4mb 64f
1:24am 9 10 mph 1022.3mb 64f
1:18am 9 10 mph 1022.3mb 64f
1:12am 9 10 mph 1022.3mb 64f
1:06am 9 10 mph 1022.4mb 64f
1:00am 8 9 mph 1022.4mb 64f
12:54am 8 10 mph 1022.4mb 64f
12:48am 8 9 mph 1022.4mb 64f
12:42am 8 9 mph 1022.4mb 64f
12:36am 7 8 mph 1022.3mb 64f
12:30am 7 8 mph 1022.4mb 65f
12:24am 7 8 mph 1022.3mb 65f
12:18am 8 8 mph 1022.4mb 65f
12:12am 7 9 mph 1022.4mb 65f
12:06am 7 8 mph 1022.4mb 65f
12:00am 7 8 mph 1022.5mb 65f
Thu 10/19 11:54pm 7 8 mph 1022.5mb 65f
11:48pm 7 7 mph 1022.6mb 65f
11:36pm 7 8 mph 1022.6mb 66f
11:30pm 7 8 mph 1022.6mb 65f
11:24pm 7 8 mph 1022.6mb 66f
11:18pm 6 7 mph 1022.5mb 65f
11:12pm 6 8 mph 1022.4mb 65f
11:06pm 7 8 mph 1022.4mb 65f
11:00pm 8 9 mph 1022.3mb 65f
10:54pm 8 9 mph 1022.4mb 66f
10:48pm 8 9 mph 1022.5mb 66f
10:42pm 7 9 mph 1022.5mb 66f
10:36pm 8 9 mph 1022.5mb 66f
10:30pm 9 10 mph 1022.5mb 66f
10:24pm 9 10 mph 1022.5mb 66f
10:18pm 9 10 mph 1022.5mb 67f
10:12pm 9 10 mph 1022.5mb 67f
10:06pm 10 11 mph 1022.5mb 67f
10:00pm 10 11 mph 1022.4mb 67f
9:54pm 11 11 mph 1022.4mb 67f
9:48pm 10 13 mph 1022.4mb 67f
9:42pm 10 13 mph 1022.5mb 67f
9:36pm 13 13 mph 1022.5mb 67f
9:30pm 10 11 mph 1022.5mb 67f
9:24pm 10 11 mph 1022.4mb 67f
9:18pm 10 11 mph 1022.3mb 67f
9:12pm 10 11 mph 1022.3mb 67f
9:06pm 10 11 mph 1022.2mb 67f
9:00pm 10 11 mph 1022.3mb 67f
8:54pm 10 11 mph 1022.3mb 68f
8:48pm 10 11 mph 1022.4mb 67f
8:42pm 10 11 mph 1022.4mb 67f
8:36pm 10 11 mph 1022.3mb 68f
8:30pm 10 11 mph 1022.4mb 68f
8:24pm 9 10 mph 1022.4mb 68f
8:18pm 9 10 mph 1022.4mb 68f
8:12pm 10 11 mph 1022.4mb 68f
8:06pm 10 11 mph 1022.3mb 68f
8:00pm 8 9 mph 1022.4mb 69f
7:54pm 7 8 mph 1022.4mb 69f
7:48pm 7 8 mph 1022.4mb 69f
7:36pm 6 6 mph 1022.6mb 69f
7:30pm 6 6 mph 1022.6mb 70f
7:24pm 5 6 mph 1022.5mb 69f
7:12pm 5 6 mph 1022.4mb 69f
7:06pm 6 7 mph 1022.3mb 69f
7:00pm 6 7 mph 1022.3mb 69f
6:54pm 6 6 mph 1022.3mb 69f
6:48pm  -  mph 1022.3mb 69f
6:42pm  -  mph 1022.3mb 69f
6:36pm  -  mph 1022.3mb 69f
6:30pm 5 6 mph 1022.3mb 69f
6:24pm 6 7 mph 1022.2mb 69f
6:18pm 5 6 mph 1022.2mb 68f
6:06pm 5 6 mph 1022.3mb 68f
6:00pm 3 5 mph 1022.3mb 69f
5:54pm 3 5 mph 1022.3mb 68f
5:48pm 5 6 mph 1022.2mb 68f
5:42pm 5 6 mph 1022.3mb 68f
5:36pm 5 6 mph 1022.3mb 68f
5:30pm 5 6 mph 1022.3mb 68f
5:24pm 3 5 mph 1022.3mb 68f
5:18pm 3 5 mph 1022.4mb 69f
5:12pm 5 5 mph 1022.4mb 69f
5:06pm 5 5 mph 1022.4mb 69f
5:00pm 5 6 mph 1022.4mb 68f
4:54pm 5 6 mph 1022.5mb 69f
4:48pm 3 5 mph 1022.5mb 69f
4:42pm 5 6 mph 1022.6mb 69f
4:36pm 5 5 mph 1022.6mb 69f
4:30pm 5 6 mph 1022.6mb 69f
4:24pm 5 6 mph 1022.7mb 69f
4:18pm 5 6 mph 1022.8mb 69f
4:12pm 5 5 mph 1022.9mb 69f
4:06pm 5 6 mph 1022.9mb 69f
4:00pm 6 6 mph 1022.9mb 69f
3:54pm 5 6 mph 1022.9mb 69f
3:48pm 6 6 mph 1023mb 69f
3:42pm 6 6 mph 1023.1mb 69f
3:36pm 6 6 mph 1023.1mb 69f
3:30pm 6 6 mph 1023.2mb 69f
3:24pm 5 6 mph 1023.3mb 69f
3:18pm 6 7 mph 1023.2mb 68f
3:06pm 5 6 mph 1023.4mb 69f
3:00pm 5 6 mph 1023.5mb 69f
2:54pm 5 5 mph 1023.5mb 69f
2:42pm 6 6 mph 1023.6mb 69f
2:30pm 5 6 mph 1023.8mb 69f
2:24pm 5 6 mph 1023.9mb 69f
2:18pm 3 5 mph 1024mb 68f
2:12pm 5 5 mph 1024.1mb 69f
2:06pm 3 5 mph 1024.2mb 69f
2:00pm 5 5 mph 1024.2mb 68f
1:54pm 3 5 mph 1024.3mb 69f
1:48pm 3 5 mph 1024.4mb 69f
1:42pm 5 5 mph 1024.4mb 68f
1:36pm 5 5 mph 1024.5mb 67f
1:30pm 6 7 mph 1024.6mb 68f
1:24pm 2 2 mph 1024.7mb 69f
1:18pm  -  1 mph 1024.8mb 71f
1:12pm  -  0 mph 1024.9mb 70f
1:06pm  -  0 mph 1025mb 70f
1:00pm 1 2 mph 1025.1mb 70f
12:54pm  -  1 mph 1025.2mb 71f
12:48pm  -  1 mph 1025.3mb 72f
12:42pm  -  0 mph 1025.4mb 72f
12:36pm  -  1 mph 1025.5mb 70f
12:30pm 2 2 mph 1025.6mb 69f
12:24pm  -  1 mph 1025.7mb 69f
12:18pm 1 2 mph 1025.7mb 68f
12:12pm 2 3 mph 1025.9mb 67f
12:06pm  -  2 mph 1026mb 67f
12:00pm 1 2 mph 1026.1mb 68f
11:54am 1 2 mph 1026.2mb 69f
11:48am  -  1 mph 1026.3mb 69f
11:36am 1 2 mph 1026.3mb 68f
11:30am 2 3 mph 1026.4mb 68f
11:24am 3 3 mph 1026.4mb 67f
11:18am 3 5 mph 1026.4mb 66f
11:12am 5 5 mph 1026.5mb 66f
11:06am 5 6 mph 1026.5mb 66f
11:00am 6 6 mph 1026.6mb 66f
10:54am 5 6 mph 1026.6mb 66f
10:48am 5 6 mph 1026.6mb 66f
10:42am 5 6 mph 1026.6mb 66f
10:36am 5 6 mph 1026.6mb 66f
10:30am 5 6 mph 1026.6mb 66f
10:24am 5 6 mph 1026.6mb 65f
10:18am 5 6 mph 1026.6mb 65f
10:12am 5 6 mph 1026.6mb 65f
10:06am 5 6 mph 1026.6mb 66f
10:00am 5 6 mph 1026.5mb 65f
9:54am 5 5 mph 1026.5mb 65f
9:48am 5 6 mph 1026.4mb 65f
9:42am 3 5 mph 1026.4mb 65f
9:36am 3 5 mph 1026.5mb 65f
9:30am 5 6 mph 1026.4mb 65f
9:24am 5 6 mph 1026.4mb 65f
9:18am 5 6 mph 1026.4mb 65f
9:12am 5 6 mph 1026.4mb 65f
9:06am 3 5 mph 1026.4mb 65f
9:00am 5 6 mph 1026.4mb 65f
8:48am 5 6 mph 1026.4mb 65f
8:42am 3 5 mph 1026.4mb 64f
8:36am 5 6 mph 1026.3mb 63f
8:30am 3 5 mph 1026.2mb 63f
8:24am 5 6 mph 1026.2mb 62f
8:18am 5 6 mph 1026.2mb 63f
8:12am 5 6 mph 1026.2mb 64f
7:54am 6 6 mph 1026.1mb 63f
7:48am 6 7 mph 1026.1mb 63f
6:48am 6 7 mph 1026.2mb 62f